sensor_id;sensor_type;location;lat;lon;timestamp;P1;durP1;ratioP1;P2;durP2;ratioP2
42332;SDS011;27984;51.476;5.702;2023-11-18T00:00:39;51.05;;;27.85;;
42332;SDS011;27984;51.476;5.702;2023-11-18T00:03:06;51.22;;;26.77;;
42332;SDS011;27984;51.476;5.702;2023-11-18T00:05:33;55.22;;;27.42;;
42332;SDS011;27984;51.476;5.702;2023-11-18T00:07:59;44.63;;;25.75;;
42332;SDS011;27984;51.476;5.702;2023-11-18T00:10:25;51.63;;;26.42;;
42332;SDS011;27984;51.476;5.702;2023-11-18T00:12:51;46.92;;;25.98;;
42332;SDS011;27984;51.476;5.702;2023-11-18T00:15:17;45.80;;;24.70;;
42332;SDS011;27984;51.476;5.702;2023-11-18T00:17:45;48.45;;;25.85;;
42332;SDS011;27984;51.476;5.702;2023-11-18T00:20:11;43.22;;;26.05;;
42332;SDS011;27984;51.476;5.702;2023-11-18T00:22:38;46.80;;;26.45;;
42332;SDS011;27984;51.476;5.702;2023-11-18T00:25:06;47.53;;;25.08;;
42332;SDS011;27984;51.476;5.702;2023-11-18T00:27:39;44.60;;;25.55;;
42332;SDS011;27984;51.476;5.702;2023-11-18T00:30:05;48.83;;;25.77;;
42332;SDS011;27984;51.476;5.702;2023-11-18T00:32:36;52.97;;;27.23;;
42332;SDS011;27984;51.476;5.702;2023-11-18T00:35:02;54.20;;;26.73;;
42332;SDS011;27984;51.476;5.702;2023-11-18T00:37:31;48.78;;;25.77;;
42332;SDS011;27984;51.476;5.702;2023-11-18T00:39:58;49.88;;;27.05;;
42332;SDS011;27984;51.476;5.702;2023-11-18T00:42:23;52.05;;;27.00;;
42332;SDS011;27984;51.476;5.702;2023-11-18T00:44:50;49.15;;;26.63;;
42332;SDS011;27984;51.476;5.702;2023-11-18T00:47:16;49.20;;;25.98;;
42332;SDS011;27984;51.476;5.702;2023-11-18T00:49:42;48.40;;;25.75;;
42332;SDS011;27984;51.476;5.702;2023-11-18T00:52:08;47.08;;;26.05;;
42332;SDS011;27984;51.476;5.702;2023-11-18T00:54:34;51.88;;;27.92;;
42332;SDS011;27984;51.476;5.702;2023-11-18T00:57:01;52.30;;;29.00;;
42332;SDS011;27984;51.476;5.702;2023-11-18T00:59:27;60.03;;;30.02;;
42332;SDS011;27984;51.476;5.702;2023-11-18T01:01:53;64.78;;;32.97;;
42332;SDS011;27984;51.476;5.702;2023-11-18T01:04:19;71.68;;;36.85;;
42332;SDS011;27984;51.476;5.702;2023-11-18T01:06:45;58.35;;;34.10;;
42332;SDS011;27984;51.476;5.702;2023-11-18T01:09:12;54.15;;;31.45;;
42332;SDS011;27984;51.476;5.702;2023-11-18T01:11:38;53.53;;;29.52;;
42332;SDS011;27984;51.476;5.702;2023-11-18T01:14:04;50.80;;;28.27;;
42332;SDS011;27984;51.476;5.702;2023-11-18T01:16:30;46.53;;;27.63;;
42332;SDS011;27984;51.476;5.702;2023-11-18T01:18:56;48.45;;;25.80;;
42332;SDS011;27984;51.476;5.702;2023-11-18T01:21:22;50.60;;;25.95;;
42332;SDS011;27984;51.476;5.702;2023-11-18T01:23:48;49.70;;;25.77;;
42332;SDS011;27984;51.476;5.702;2023-11-18T01:26:15;45.58;;;25.73;;
42332;SDS011;27984;51.476;5.702;2023-11-18T01:28:41;43.67;;;24.85;;
42332;SDS011;27984;51.476;5.702;2023-11-18T01:31:08;46.75;;;24.10;;
42332;SDS011;27984;51.476;5.702;2023-11-18T01:33:38;41.95;;;24.58;;
42332;SDS011;27984;51.476;5.702;2023-11-18T01:36:08;42.42;;;24.30;;
42332;SDS011;27984;51.476;5.702;2023-11-18T01:38:35;43.25;;;23.70;;
42332;SDS011;27984;51.476;5.702;2023-11-18T01:41:02;43.40;;;23.55;;
42332;SDS011;27984;51.476;5.702;2023-11-18T01:43:30;44.08;;;25.30;;
42332;SDS011;27984;51.476;5.702;2023-11-18T01:45:57;42.70;;;24.40;;
42332;SDS011;27984;51.476;5.702;2023-11-18T01:48:23;51.42;;;26.27;;
42332;SDS011;27984;51.476;5.702;2023-11-18T01:50:51;43.92;;;25.70;;
42332;SDS011;27984;51.476;5.702;2023-11-18T01:53:18;51.00;;;25.17;;
42332;SDS011;27984;51.476;5.702;2023-11-18T01:55:44;47.53;;;26.33;;
42332;SDS011;27984;51.476;5.702;2023-11-18T01:58:11;49.40;;;26.77;;
42332;SDS011;27984;51.476;5.702;2023-11-18T02:00:38;46.80;;;25.75;;
42332;SDS011;27984;51.476;5.702;2023-11-18T02:03:06;55.97;;;27.67;;
42332;SDS011;27984;51.476;5.702;2023-11-18T02:05:34;54.15;;;28.45;;
42332;SDS011;27984;51.476;5.702;2023-11-18T02:08:01;55.35;;;28.77;;
42332;SDS011;27984;51.476;5.702;2023-11-18T02:10:32;62.53;;;29.98;;
42332;SDS011;27984;51.476;5.702;2023-11-18T02:13:04;57.10;;;29.50;;
42332;SDS011;27984;51.476;5.702;2023-11-18T02:15:35;57.80;;;28.45;;
42332;SDS011;27984;51.476;5.702;2023-11-18T02:18:02;55.30;;;30.13;;
42332;SDS011;27984;51.476;5.702;2023-11-18T02:20:30;54.53;;;29.95;;
42332;SDS011;27984;51.476;5.702;2023-11-18T02:22:56;54.55;;;29.75;;
42332;SDS011;27984;51.476;5.702;2023-11-18T02:25:23;52.83;;;29.05;;
42332;SDS011;27984;51.476;5.702;2023-11-18T02:27:52;52.83;;;27.35;;
42332;SDS011;27984;51.476;5.702;2023-11-18T02:30:18;49.85;;;28.63;;
42332;SDS011;27984;51.476;5.702;2023-11-18T02:35:24;53.92;;;29.45;;
42332;SDS011;27984;51.476;5.702;2023-11-18T02:37:51;58.22;;;29.42;;
42332;SDS011;27984;51.476;5.702;2023-11-18T02:40:20;59.03;;;30.08;;
42332;SDS011;27984;51.476;5.702;2023-11-18T02:42:48;53.15;;;29.65;;
42332;SDS011;27984;51.476;5.702;2023-11-18T02:45:14;58.63;;;30.52;;
42332;SDS011;27984;51.476;5.702;2023-11-18T02:47:43;53.22;;;29.88;;
42332;SDS011;27984;51.476;5.702;2023-11-18T02:50:09;54.28;;;29.30;;
42332;SDS011;27984;51.476;5.702;2023-11-18T02:52:38;59.17;;;31.67;;
42332;SDS011;27984;51.476;5.702;2023-11-18T02:55:05;57.70;;;29.88;;
42332;SDS011;27984;51.476;5.702;2023-11-18T02:57:32;52.50;;;29.60;;
42332;SDS011;27984;51.476;5.702;2023-11-18T02:59:59;58.10;;;30.08;;
42332;SDS011;27984;51.476;5.702;2023-11-18T03:02:29;53.15;;;30.50;;
42332;SDS011;27984;51.476;5.702;2023-11-18T03:04:56;62.53;;;30.40;;
42332;SDS011;27984;51.476;5.702;2023-11-18T03:07:23;55.15;;;30.35;;
42332;SDS011;27984;51.476;5.702;2023-11-18T03:09:49;61.88;;;31.77;;
42332;SDS011;27984;51.476;5.702;2023-11-18T03:12:15;57.13;;;30.90;;
42332;SDS011;27984;51.476;5.702;2023-11-18T03:14:41;52.50;;;29.63;;
42332;SDS011;27984;51.476;5.702;2023-11-18T03:17:07;53.08;;;29.75;;
42332;SDS011;27984;51.476;5.702;2023-11-18T03:19:34;52.60;;;29.90;;
42332;SDS011;27984;51.476;5.702;2023-11-18T03:22:01;49.83;;;29.95;;
42332;SDS011;27984;51.476;5.702;2023-11-18T03:24:27;52.53;;;29.27;;
42332;SDS011;27984;51.476;5.702;2023-11-18T03:26:56;56.72;;;29.77;;
42332;SDS011;27984;51.476;5.702;2023-11-18T03:29:22;50.33;;;28.90;;
42332;SDS011;27984;51.476;5.702;2023-11-18T03:31:49;49.17;;;27.55;;
42332;SDS011;27984;51.476;5.702;2023-11-18T03:34:15;52.42;;;27.13;;
42332;SDS011;27984;51.476;5.702;2023-11-18T03:36:41;48.08;;;27.38;;
42332;SDS011;27984;51.476;5.702;2023-11-18T03:39:07;47.92;;;26.90;;
42332;SDS011;27984;51.476;5.702;2023-11-18T03:41:35;43.08;;;26.30;;
42332;SDS011;27984;51.476;5.702;2023-11-18T03:44:02;43.78;;;25.50;;
42332;SDS011;27984;51.476;5.702;2023-11-18T03:46:29;46.05;;;25.30;;
42332;SDS011;27984;51.476;5.702;2023-11-18T03:48:58;43.55;;;26.48;;
42332;SDS011;27984;51.476;5.702;2023-11-18T03:51:24;50.85;;;25.95;;
42332;SDS011;27984;51.476;5.702;2023-11-18T03:53:50;42.70;;;25.45;;
42332;SDS011;27984;51.476;5.702;2023-11-18T03:56:16;42.97;;;25.77;;
42332;SDS011;27984;51.476;5.702;2023-11-18T03:58:43;49.25;;;25.75;;
42332;SDS011;27984;51.476;5.702;2023-11-18T04:01:18;42.03;;;26.13;;
42332;SDS011;27984;51.476;5.702;2023-11-18T04:03:44;43.80;;;26.17;;
42332;SDS011;27984;51.476;5.702;2023-11-18T04:06:10;42.75;;;25.33;;
42332;SDS011;27984;51.476;5.702;2023-11-18T04:08:36;46.50;;;26.08;;
42332;SDS011;27984;51.476;5.702;2023-11-18T04:11:02;41.50;;;25.38;;
42332;SDS011;27984;51.476;5.702;2023-11-18T04:13:29;49.80;;;26.35;;
42332;SDS011;27984;51.476;5.702;2023-11-18T04:15:55;46.55;;;27.55;;
42332;SDS011;27984;51.476;5.702;2023-11-18T04:18:21;44.67;;;28.23;;
42332;SDS011;27984;51.476;5.702;2023-11-18T04:20:48;50.90;;;28.63;;
42332;SDS011;27984;51.476;5.702;2023-11-18T04:23:14;51.30;;;28.15;;
42332;SDS011;27984;51.476;5.702;2023-11-18T04:25:41;50.80;;;30.02;;
42332;SDS011;27984;51.476;5.702;2023-11-18T04:28:07;51.22;;;29.65;;
42332;SDS011;27984;51.476;5.702;2023-11-18T04:30:33;51.72;;;29.52;;
42332;SDS011;27984;51.476;5.702;2023-11-18T04:32:59;48.60;;;30.02;;
42332;SDS011;27984;51.476;5.702;2023-11-18T04:35:25;54.17;;;30.13;;
42332;SDS011;27984;51.476;5.702;2023-11-18T04:37:51;53.70;;;31.05;;
42332;SDS011;27984;51.476;5.702;2023-11-18T04:40:17;57.03;;;31.25;;
42332;SDS011;27984;51.476;5.702;2023-11-18T04:42:43;59.63;;;32.13;;
42332;SDS011;27984;51.476;5.702;2023-11-18T04:45:09;54.15;;;32.17;;
42332;SDS011;27984;51.476;5.702;2023-11-18T04:47:36;52.13;;;31.02;;
42332;SDS011;27984;51.476;5.702;2023-11-18T04:50:03;59.75;;;31.83;;
42332;SDS011;27984;51.476;5.702;2023-11-18T04:52:29;55.13;;;31.10;;
42332;SDS011;27984;51.476;5.702;2023-11-18T04:54:57;51.35;;;32.10;;
42332;SDS011;27984;51.476;5.702;2023-11-18T04:57:24;52.30;;;31.65;;
42332;SDS011;27984;51.476;5.702;2023-11-18T04:59:50;61.80;;;32.22;;
42332;SDS011;27984;51.476;5.702;2023-11-18T05:02:16;55.22;;;32.63;;
42332;SDS011;27984;51.476;5.702;2023-11-18T05:04:42;53.22;;;31.50;;
42332;SDS011;27984;51.476;5.702;2023-11-18T05:07:08;52.67;;;31.27;;
42332;SDS011;27984;51.476;5.702;2023-11-18T05:09:34;52.53;;;30.77;;
42332;SDS011;27984;51.476;5.702;2023-11-18T05:12:00;52.78;;;32.00;;
42332;SDS011;27984;51.476;5.702;2023-11-18T05:14:27;51.35;;;31.38;;
42332;SDS011;27984;51.476;5.702;2023-11-18T05:16:53;47.67;;;30.27;;
42332;SDS011;27984;51.476;5.702;2023-11-18T05:19:19;48.95;;;30.08;;
42332;SDS011;27984;51.476;5.702;2023-11-18T05:21:45;56.95;;;30.40;;
42332;SDS011;27984;51.476;5.702;2023-11-18T05:24:14;50.85;;;29.67;;
42332;SDS011;27984;51.476;5.702;2023-11-18T05:26:40;52.88;;;29.52;;
42332;SDS011;27984;51.476;5.702;2023-11-18T05:29:06;46.70;;;28.65;;
42332;SDS011;27984;51.476;5.702;2023-11-18T05:31:32;50.58;;;28.63;;
42332;SDS011;27984;51.476;5.702;2023-11-18T05:33:58;47.40;;;27.65;;
42332;SDS011;27984;51.476;5.702;2023-11-18T05:36:24;45.42;;;26.77;;
42332;SDS011;27984;51.476;5.702;2023-11-18T05:38:55;43.30;;;27.17;;
42332;SDS011;27984;51.476;5.702;2023-11-18T05:41:21;43.20;;;27.33;;
42332;SDS011;27984;51.476;5.702;2023-11-18T05:43:53;39.03;;;26.55;;
42332;SDS011;27984;51.476;5.702;2023-11-18T05:46:21;44.58;;;26.13;;
42332;SDS011;27984;51.476;5.702;2023-11-18T05:48:54;43.95;;;26.55;;
42332;SDS011;27984;51.476;5.702;2023-11-18T05:51:24;42.13;;;25.77;;
42332;SDS011;27984;51.476;5.702;2023-11-18T05:53:51;43.72;;;25.17;;
42332;SDS011;27984;51.476;5.702;2023-11-18T05:56:18;35.78;;;24.48;;
42332;SDS011;27984;51.476;5.702;2023-11-18T05:58:44;38.55;;;23.95;;
42332;SDS011;27984;51.476;5.702;2023-11-18T06:01:11;43.75;;;25.35;;
42332;SDS011;27984;51.476;5.702;2023-11-18T06:03:37;40.50;;;25.73;;
42332;SDS011;27984;51.476;5.702;2023-11-18T06:06:07;40.65;;;24.20;;
42332;SDS011;27984;51.476;5.702;2023-11-18T06:08:36;39.50;;;24.23;;
42332;SDS011;27984;51.476;5.702;2023-11-18T06:11:06;41.72;;;25.40;;
42332;SDS011;27984;51.476;5.702;2023-11-18T06:13:38;39.00;;;23.80;;
42332;SDS011;27984;51.476;5.702;2023-11-18T06:16:07;38.67;;;24.23;;
42332;SDS011;27984;51.476;5.702;2023-11-18T06:18:33;39.70;;;24.58;;
42332;SDS011;27984;51.476;5.702;2023-11-18T06:21:01;37.75;;;23.23;;
42332;SDS011;27984;51.476;5.702;2023-11-18T06:23:27;36.22;;;23.17;;
42332;SDS011;27984;51.476;5.702;2023-11-18T06:25:53;39.10;;;23.35;;
42332;SDS011;27984;51.476;5.702;2023-11-18T06:28:19;37.22;;;21.83;;
42332;SDS011;27984;51.476;5.702;2023-11-18T06:30:45;35.65;;;21.83;;
42332;SDS011;27984;51.476;5.702;2023-11-18T06:33:11;33.92;;;20.60;;
42332;SDS011;27984;51.476;5.702;2023-11-18T06:35:37;34.17;;;21.10;;
42332;SDS011;27984;51.476;5.702;2023-11-18T06:38:05;35.17;;;20.98;;
42332;SDS011;27984;51.476;5.702;2023-11-18T06:40:32;35.65;;;20.80;;
42332;SDS011;27984;51.476;5.702;2023-11-18T06:43:00;37.85;;;20.17;;
42332;SDS011;27984;51.476;5.702;2023-11-18T06:45:27;33.80;;;20.50;;
42332;SDS011;27984;51.476;5.702;2023-11-18T06:47:56;34.20;;;19.83;;
42332;SDS011;27984;51.476;5.702;2023-11-18T06:50:23;35.38;;;19.63;;
42332;SDS011;27984;51.476;5.702;2023-11-18T06:52:51;31.65;;;18.65;;
42332;SDS011;27984;51.476;5.702;2023-11-18T06:55:17;24.77;;;17.23;;
42332;SDS011;27984;51.476;5.702;2023-11-18T06:57:44;35.42;;;18.73;;
42332;SDS011;27984;51.476;5.702;2023-11-18T07:00:11;29.83;;;17.48;;
42332;SDS011;27984;51.476;5.702;2023-11-18T07:02:39;30.40;;;18.02;;
42332;SDS011;27984;51.476;5.702;2023-11-18T07:05:05;26.17;;;17.00;;
42332;SDS011;27984;51.476;5.702;2023-11-18T07:07:31;30.00;;;17.05;;
42332;SDS011;27984;51.476;5.702;2023-11-18T07:09:57;29.38;;;17.73;;
42332;SDS011;27984;51.476;5.702;2023-11-18T07:12:23;30.55;;;16.50;;
42332;SDS011;27984;51.476;5.702;2023-11-18T07:14:49;30.50;;;15.75;;
42332;SDS011;27984;51.476;5.702;2023-11-18T07:17:15;27.42;;;17.27;;
42332;SDS011;27984;51.476;5.702;2023-11-18T07:19:44;29.10;;;16.00;;
42332;SDS011;27984;51.476;5.702;2023-11-18T07:22:10;27.75;;;16.50;;
42332;SDS011;27984;51.476;5.702;2023-11-18T07:24:36;27.25;;;14.90;;
42332;SDS011;27984;51.476;5.702;2023-11-18T07:27:02;24.00;;;15.77;;
42332;SDS011;27984;51.476;5.702;2023-11-18T07:29:30;26.77;;;16.35;;
42332;SDS011;27984;51.476;5.702;2023-11-18T07:31:57;25.13;;;16.02;;
42332;SDS011;27984;51.476;5.702;2023-11-18T07:34:23;26.27;;;16.23;;
42332;SDS011;27984;51.476;5.702;2023-11-18T07:36:50;26.60;;;15.38;;
42332;SDS011;27984;51.476;5.702;2023-11-18T07:39:17;24.73;;;15.75;;
42332;SDS011;27984;51.476;5.702;2023-11-18T07:42:03;25.17;;;15.95;;
42332;SDS011;27984;51.476;5.702;2023-11-18T07:44:30;26.95;;;15.40;;
42332;SDS011;27984;51.476;5.702;2023-11-18T07:46:58;29.77;;;16.00;;
42332;SDS011;27984;51.476;5.702;2023-11-18T07:49:24;27.08;;;15.45;;
42332;SDS011;27984;51.476;5.702;2023-11-18T07:51:51;25.13;;;15.32;;
42332;SDS011;27984;51.476;5.702;2023-11-18T07:54:17;28.42;;;15.05;;
42332;SDS011;27984;51.476;5.702;2023-11-18T07:56:43;27.23;;;14.93;;
42332;SDS011;27984;51.476;5.702;2023-11-18T07:59:12;24.88;;;14.80;;
42332;SDS011;27984;51.476;5.702;2023-11-18T08:01:41;22.58;;;15.18;;
42332;SDS011;27984;51.476;5.702;2023-11-18T08:04:09;26.25;;;14.93;;
42332;SDS011;27984;51.476;5.702;2023-11-18T08:06:38;23.20;;;14.50;;
42332;SDS011;27984;51.476;5.702;2023-11-18T08:09:04;25.70;;;14.43;;
42332;SDS011;27984;51.476;5.702;2023-11-18T08:11:35;23.45;;;14.23;;
42332;SDS011;27984;51.476;5.702;2023-11-18T08:14:01;26.58;;;14.45;;
42332;SDS011;27984;51.476;5.702;2023-11-18T08:16:27;20.27;;;13.15;;
42332;SDS011;27984;51.476;5.702;2023-11-18T08:18:54;21.60;;;13.20;;
42332;SDS011;27984;51.476;5.702;2023-11-18T08:21:20;22.38;;;13.32;;
42332;SDS011;27984;51.476;5.702;2023-11-18T08:23:47;18.63;;;13.07;;
42332;SDS011;27984;51.476;5.702;2023-11-18T08:26:13;28.55;;;12.77;;
42332;SDS011;27984;51.476;5.702;2023-11-18T08:28:39;19.90;;;12.07;;
42332;SDS011;27984;51.476;5.702;2023-11-18T08:31:05;18.92;;;11.35;;
42332;SDS011;27984;51.476;5.702;2023-11-18T08:33:32;21.08;;;11.38;;
42332;SDS011;27984;51.476;5.702;2023-11-18T08:35:58;19.23;;;10.68;;
42332;SDS011;27984;51.476;5.702;2023-11-18T08:38:26;21.45;;;10.80;;
42332;SDS011;27984;51.476;5.702;2023-11-18T08:40:53;19.17;;;10.73;;
42332;SDS011;27984;51.476;5.702;2023-11-18T08:43:20;18.67;;;10.75;;
42332;SDS011;27984;51.476;5.702;2023-11-18T08:45:46;25.35;;;11.05;;
42332;SDS011;27984;51.476;5.702;2023-11-18T08:48:14;19.38;;;10.13;;
42332;SDS011;27984;51.476;5.702;2023-11-18T08:50:43;19.17;;;10.02;;
42332;SDS011;27984;51.476;5.702;2023-11-18T08:53:10;17.48;;;9.70;;
42332;SDS011;27984;51.476;5.702;2023-11-18T08:55:37;17.73;;;9.82;;
42332;SDS011;27984;51.476;5.702;2023-11-18T08:58:07;19.42;;;9.93;;
42332;SDS011;27984;51.476;5.702;2023-11-18T09:00:50;21.17;;;9.40;;
42332;SDS011;27984;51.476;5.702;2023-11-18T09:03:17;18.50;;;9.57;;
42332;SDS011;27984;51.476;5.702;2023-11-18T09:05:50;20.00;;;8.95;;
42332;SDS011;27984;51.476;5.702;2023-11-18T09:08:23;14.07;;;8.55;;
42332;SDS011;27984;51.476;5.702;2023-11-18T09:10:49;18.90;;;9.00;;
42332;SDS011;27984;51.476;5.702;2023-11-18T09:13:18;16.02;;;8.70;;
42332;SDS011;27984;51.476;5.702;2023-11-18T09:15:44;15.35;;;8.32;;
42332;SDS011;27984;51.476;5.702;2023-11-18T09:18:11;14.27;;;8.27;;
42332;SDS011;27984;51.476;5.702;2023-11-18T09:20:38;18.98;;;7.78;;
42332;SDS011;27984;51.476;5.702;2023-11-18T09:23:04;17.95;;;8.80;;
42332;SDS011;27984;51.476;5.702;2023-11-18T09:25:32;22.92;;;8.32;;
42332;SDS011;27984;51.476;5.702;2023-11-18T09:27:58;20.52;;;8.27;;
42332;SDS011;27984;51.476;5.702;2023-11-18T09:30:25;13.90;;;7.15;;
42332;SDS011;27984;51.476;5.702;2023-11-18T09:32:51;14.70;;;7.30;;
42332;SDS011;27984;51.476;5.702;2023-11-18T09:35:18;16.85;;;7.38;;
42332;SDS011;27984;51.476;5.702;2023-11-18T09:37:45;16.30;;;7.70;;
42332;SDS011;27984;51.476;5.702;2023-11-18T09:40:13;17.23;;;7.63;;
42332;SDS011;27984;51.476;5.702;2023-11-18T09:42:40;15.10;;;7.65;;
42332;SDS011;27984;51.476;5.702;2023-11-18T09:45:08;17.85;;;7.95;;
42332;SDS011;27984;51.476;5.702;2023-11-18T09:47:44;14.20;;;7.30;;
42332;SDS011;27984;51.476;5.702;2023-11-18T09:50:18;12.27;;;7.50;;
42332;SDS011;27984;51.476;5.702;2023-11-18T09:52:48;17.73;;;7.32;;
42332;SDS011;27984;51.476;5.702;2023-11-18T09:55:25;18.55;;;7.65;;
42332;SDS011;27984;51.476;5.702;2023-11-18T09:57:55;15.45;;;7.63;;
42332;SDS011;27984;51.476;5.702;2023-11-18T10:00:22;12.73;;;7.63;;
42332;SDS011;27984;51.476;5.702;2023-11-18T10:02:51;16.50;;;7.65;;
42332;SDS011;27984;51.476;5.702;2023-11-18T10:05:21;18.42;;;8.05;;
42332;SDS011;27984;51.476;5.702;2023-11-18T10:07:48;15.93;;;8.25;;
42332;SDS011;27984;51.476;5.702;2023-11-18T10:10:14;21.83;;;8.45;;
42332;SDS011;27984;51.476;5.702;2023-11-18T10:12:43;18.20;;;8.02;;
42332;SDS011;27984;51.476;5.702;2023-11-18T10:15:11;17.08;;;7.32;;
42332;SDS011;27984;51.476;5.702;2023-11-18T10:17:43;16.88;;;7.32;;
42332;SDS011;27984;51.476;5.702;2023-11-18T10:20:20;13.52;;;7.30;;
42332;SDS011;27984;51.476;5.702;2023-11-18T10:22:50;16.17;;;7.80;;
42332;SDS011;27984;51.476;5.702;2023-11-18T10:25:31;15.50;;;7.47;;
42332;SDS011;27984;51.476;5.702;2023-11-18T10:27:59;17.98;;;7.45;;
42332;SDS011;27984;51.476;5.702;2023-11-18T10:30:27;23.17;;;8.60;;
42332;SDS011;27984;51.476;5.702;2023-11-18T10:33:00;16.55;;;7.45;;
42332;SDS011;27984;51.476;5.702;2023-11-18T10:35:34;20.75;;;8.15;;
42332;SDS011;27984;51.476;5.702;2023-11-18T10:38:04;12.02;;;7.28;;
42332;SDS011;27984;51.476;5.702;2023-11-18T10:40:33;17.05;;;7.80;;
42332;SDS011;27984;51.476;5.702;2023-11-18T10:43:05;23.70;;;7.53;;
42332;SDS011;27984;51.476;5.702;2023-11-18T10:45:34;14.45;;;7.13;;
42332;SDS011;27984;51.476;5.702;2023-11-18T10:48:06;17.88;;;7.78;;
42332;SDS011;27984;51.476;5.702;2023-11-18T10:50:32;19.50;;;7.85;;
42332;SDS011;27984;51.476;5.702;2023-11-18T10:53:02;20.20;;;7.65;;
42332;SDS011;27984;51.476;5.702;2023-11-18T10:55:35;17.50;;;7.32;;
42332;SDS011;27984;51.476;5.702;2023-11-18T10:58:02;15.48;;;6.85;;
42332;SDS011;27984;51.476;5.702;2023-11-18T11:00:29;14.55;;;6.68;;
42332;SDS011;27984;51.476;5.702;2023-11-18T11:02:58;21.02;;;6.93;;
42332;SDS011;27984;51.476;5.702;2023-11-18T11:05:28;20.10;;;7.45;;
42332;SDS011;27984;51.476;5.702;2023-11-18T11:07:58;17.15;;;6.88;;
42332;SDS011;27984;51.476;5.702;2023-11-18T11:10:30;18.38;;;7.22;;
42332;SDS011;27984;51.476;5.702;2023-11-18T11:12:56;15.40;;;7.18;;
42332;SDS011;27984;51.476;5.702;2023-11-18T11:15:30;13.45;;;7.30;;
42332;SDS011;27984;51.476;5.702;2023-11-18T11:17:58;16.10;;;6.50;;
42332;SDS011;27984;51.476;5.702;2023-11-18T11:20:34;16.55;;;6.90;;
42332;SDS011;27984;51.476;5.702;2023-11-18T11:28:22;17.00;;;6.75;;
42332;SDS011;27984;51.476;5.702;2023-11-18T11:36:05;15.55;;;6.90;;
42332;SDS011;27984;51.476;5.702;2023-11-18T11:38:36;18.08;;;7.10;;
42332;SDS011;27984;51.476;5.702;2023-11-18T11:41:03;17.90;;;6.65;;
42332;SDS011;27984;51.476;5.702;2023-11-18T11:43:30;21.05;;;6.80;;
42332;SDS011;27984;51.476;5.702;2023-11-18T11:45:59;18.02;;;7.10;;
42332;SDS011;27984;51.476;5.702;2023-11-18T11:48:28;22.55;;;6.55;;
42332;SDS011;27984;51.476;5.702;2023-11-18T11:51:36;20.58;;;6.68;;
42332;SDS011;27984;51.476;5.702;2023-11-18T11:54:00;19.38;;;6.68;;
42332;SDS011;27984;51.476;5.702;2023-11-18T11:56:39;17.83;;;6.35;;
42332;SDS011;27984;51.476;5.702;2023-11-18T11:59:05;13.63;;;6.55;;
42332;SDS011;27984;51.476;5.702;2023-11-18T12:01:36;19.60;;;6.00;;
42332;SDS011;27984;51.476;5.702;2023-11-18T12:04:08;16.60;;;6.80;;
42332;SDS011;27984;51.476;5.702;2023-11-18T12:06:46;18.50;;;6.18;;
42332;SDS011;27984;51.476;5.702;2023-11-18T12:09:18;15.85;;;6.30;;
42332;SDS011;27984;51.476;5.702;2023-11-18T12:11:48;16.13;;;6.93;;
42332;SDS011;27984;51.476;5.702;2023-11-18T12:14:14;17.33;;;6.95;;
42332;SDS011;27984;51.476;5.702;2023-11-18T12:17:01;14.60;;;5.97;;
42332;SDS011;27984;51.476;5.702;2023-11-18T12:19:38;15.07;;;6.00;;
42332;SDS011;27984;51.476;5.702;2023-11-18T12:22:20;14.80;;;6.55;;
42332;SDS011;27984;51.476;5.702;2023-11-18T12:27:40;17.38;;;6.22;;
42332;SDS011;27984;51.476;5.702;2023-11-18T12:35:26;16.58;;;5.95;;
42332;SDS011;27984;51.476;5.702;2023-11-18T12:43:05;12.57;;;5.80;;
42332;SDS011;27984;51.476;5.702;2023-11-18T12:45:42;16.73;;;5.45;;
42332;SDS011;27984;51.476;5.702;2023-11-18T12:48:16;14.50;;;5.25;;
42332;SDS011;27984;51.476;5.702;2023-11-18T12:50:42;12.60;;;5.00;;
42332;SDS011;27984;51.476;5.702;2023-11-18T12:53:10;9.82;;;4.15;;
42332;SDS011;27984;51.476;5.702;2023-11-18T12:55:39;11.60;;;4.32;;
42332;SDS011;27984;51.476;5.702;2023-11-18T12:58:06;10.10;;;4.20;;
42332;SDS011;27984;51.476;5.702;2023-11-18T13:00:32;9.20;;;4.28;;
42332;SDS011;27984;51.476;5.702;2023-11-18T13:03:00;7.22;;;4.32;;
42332;SDS011;27984;51.476;5.702;2023-11-18T13:05:26;12.40;;;4.18;;
42332;SDS011;27984;51.476;5.702;2023-11-18T13:07:55;7.90;;;3.95;;
42332;SDS011;27984;51.476;5.702;2023-11-18T13:10:23;11.45;;;4.07;;
42332;SDS011;27984;51.476;5.702;2023-11-18T13:12:51;8.63;;;4.00;;
42332;SDS011;27984;51.476;5.702;2023-11-18T13:15:17;13.52;;;4.13;;
42332;SDS011;27984;51.476;5.702;2023-11-18T13:18:00;8.25;;;4.10;;
42332;SDS011;27984;51.476;5.702;2023-11-18T13:20:27;8.38;;;4.30;;
42332;SDS011;27984;51.476;5.702;2023-11-18T13:22:54;10.15;;;4.20;;
42332;SDS011;27984;51.476;5.702;2023-11-18T13:25:21;11.30;;;3.97;;
42332;SDS011;27984;51.476;5.702;2023-11-18T13:27:47;10.80;;;3.75;;
42332;SDS011;27984;51.476;5.702;2023-11-18T13:30:13;11.45;;;4.03;;
42332;SDS011;27984;51.476;5.702;2023-11-18T13:32:42;10.18;;;4.03;;
42332;SDS011;27984;51.476;5.702;2023-11-18T13:35:11;5.68;;;3.85;;
42332;SDS011;27984;51.476;5.702;2023-11-18T13:37:38;8.45;;;4.07;;
42332;SDS011;27984;51.476;5.702;2023-11-18T13:40:07;5.97;;;3.70;;
42332;SDS011;27984;51.476;5.702;2023-11-18T13:42:33;8.13;;;4.10;;
42332;SDS011;27984;51.476;5.702;2023-11-18T13:45:19;7.72;;;3.75;;
42332;SDS011;27984;51.476;5.702;2023-11-18T13:47:50;6.65;;;3.60;;
42332;SDS011;27984;51.476;5.702;2023-11-18T13:50:17;9.02;;;3.50;;
42332;SDS011;27984;51.476;5.702;2023-11-18T13:52:44;7.50;;;4.00;;
42332;SDS011;27984;51.476;5.702;2023-11-18T13:55:11;8.00;;;4.00;;
42332;SDS011;27984;51.476;5.702;2023-11-18T13:57:42;8.70;;;4.25;;
42332;SDS011;27984;51.476;5.702;2023-11-18T14:00:08;10.50;;;4.32;;
42332;SDS011;27984;51.476;5.702;2023-11-18T14:02:40;8.98;;;4.50;;
42332;SDS011;27984;51.476;5.702;2023-11-18T14:05:14;7.82;;;4.25;;
42332;SDS011;27984;51.476;5.702;2023-11-18T14:10:08;7.32;;;4.07;;
42332;SDS011;27984;51.476;5.702;2023-11-18T14:12:38;6.18;;;3.97;;
42332;SDS011;27984;51.476;5.702;2023-11-18T14:15:04;7.15;;;3.90;;
42332;SDS011;27984;51.476;5.702;2023-11-18T14:17:30;6.47;;;4.13;;
42332;SDS011;27984;51.476;5.702;2023-11-18T14:19:56;6.95;;;4.65;;
42332;SDS011;27984;51.476;5.702;2023-11-18T14:22:23;9.77;;;4.22;;
42332;SDS011;27984;51.476;5.702;2023-11-18T14:24:49;6.22;;;3.95;;
42332;SDS011;27984;51.476;5.702;2023-11-18T14:27:15;4.78;;;3.78;;
42332;SDS011;27984;51.476;5.702;2023-11-18T14:29:41;4.72;;;3.80;;
42332;SDS011;27984;51.476;5.702;2023-11-18T14:32:07;4.72;;;4.13;;
42332;SDS011;27984;51.476;5.702;2023-11-18T14:34:33;5.88;;;4.13;;
42332;SDS011;27984;51.476;5.702;2023-11-18T14:36:59;5.50;;;4.63;;
42332;SDS011;27984;51.476;5.702;2023-11-18T14:39:26;5.95;;;4.45;;
42332;SDS011;27984;51.476;5.702;2023-11-18T14:41:52;5.05;;;4.03;;
42332;SDS011;27984;51.476;5.702;2023-11-18T14:44:18;4.68;;;4.10;;
42332;SDS011;27984;51.476;5.702;2023-11-18T14:46:45;5.93;;;4.32;;
42332;SDS011;27984;51.476;5.702;2023-11-18T14:49:12;5.18;;;4.15;;
42332;SDS011;27984;51.476;5.702;2023-11-18T14:51:37;5.90;;;4.40;;
42332;SDS011;27984;51.476;5.702;2023-11-18T14:54:05;7.70;;;4.53;;
42332;SDS011;27984;51.476;5.702;2023-11-18T14:56:31;6.00;;;4.20;;
42332;SDS011;27984;51.476;5.702;2023-11-18T14:58:57;6.10;;;3.88;;
42332;SDS011;27984;51.476;5.702;2023-11-18T15:01:24;5.85;;;4.25;;